Time;durP1;ratioP1;P1;durP2;ratioP2;P2;SDS_P1;SDS_P2;PMS_P1;PMS_P2;Temp;Humidity;BMP_temperature;BMP_pressure;BME280_temperature;BME280_humidity;BME280_pressure;Samples;Min_cycle;Max_cycle;Signal;HPM_P1;HPM_P2
2022/11/11 06:22:55;;;;;;;9.38;6.07;;;;;;;9.62;100.00;102513.53;5238118;23;20058;-82
2022/11/11 06:28:43;;;;;;;8.30;5.57;;;;;;;9.55;100.00;102507.28;4995347;28;20066;-85
2022/11/11 06:31:29;;;;;;;7.95;5.60;;;;;;;9.66;100.00;102517.47;4990585;28;20042;-84
2022/11/11 06:34:19;;;;;;;6.72;5.72;;;;;;;9.65;100.00;102515.81;4986428;28;20050;-84
2022/11/11 06:37:05;;;;;;;8.10;5.15;;;;;;;9.71;100.00;102515.94;4994875;28;20046;-84
2022/11/11 06:39:52;;;;;;;12.25;5.97;;;;;;;9.61;100.00;102502.81;4975516;28;20058;-85
2022/11/11 06:42:38;;;;;;;12.23;6.25;;;;;;;9.65;100.00;102512.25;4987498;28;20053;-86
2022/11/11 06:45:26;;;;;;;10.52;6.57;;;;;;;9.91;100.00;102511.13;4995306;28;20057;-84
2022/11/11 06:48:13;;;;;;;9.25;6.07;;;;;;;10.05;100.00;102514.53;4995249;28;20054;-85
2022/11/11 06:51:04;;;;;;;10.90;6.25;;;;;;;10.30;100.00;102507.28;4995733;28;20402;-84
2022/11/11 06:53:51;;;;;;;8.38;5.63;;;;;;;10.45;100.00;102501.41;4990297;28;20501;-84
2022/11/11 06:56:37;;;;;;;8.70;5.68;;;;;;;10.66;100.00;102515.69;4982383;28;20068;-84
2022/11/11 06:59:24;;;;;;;10.00;5.55;;;;;;;10.82;100.00;102503.22;4995510;28;20505;-84
2022/11/11 07:02:13;;;;;;;7.88;5.45;;;;;;;11.00;98.96;102505.88;4995216;28;20054;-85
2022/11/11 07:05:00;;;;;;;8.95;5.55;;;;;;;11.11;98.43;102517.91;4997116;28;20050;-84
2022/11/11 07:07:46;;;;;;;6.85;5.10;;;;;;;11.27;97.95;102512.81;4998071;28;20042;-85
2022/11/11 07:10:34;;;;;;;7.43;5.70;;;;;;;11.55;97.22;102514.03;4993091;28;20051;-84
2022/11/11 07:13:21;;;;;;;8.95;6.00;;;;;;;11.69;96.04;102522.84;4981572;28;20043;-85
2022/11/11 07:16:09;;;;;;;9.50;5.50;;;;;;;11.86;96.22;102519.34;4976506;28;20055;-85
2022/11/11 07:18:56;;;;;;;8.35;5.38;;;;;;;11.80;94.42;102518.41;4976802;28;20050;-86
2022/11/11 07:21:42;;;;;;;15.73;6.00;;;;;;;11.86;94.57;102517.47;4980421;28;20054;-86
2022/11/11 07:24:29;;;;;;;9.60;5.75;;;;;;;11.96;93.81;102527.81;4994097;28;20050;-86
2022/11/11 07:27:15;;;;;;;8.93;5.70;;;;;;;12.08;93.34;102525.91;4992783;28;20397;-86
2022/11/11 07:30:03;;;;;;;6.47;4.78;;;;;;;12.48;92.43;102523.41;4982621;28;20058;-86
2022/11/11 07:32:50;;;;;;;6.32;4.55;;;;;;;12.62;91.74;102529.44;4993014;28;20050;-83
2022/11/11 07:35:37;;;;;;;8.75;5.32;;;;;;;12.79;91.07;102532.22;4993232;28;20393;-90
2022/11/11 07:38:23;;;;;;;7.45;4.80;;;;;;;13.02;90.46;102538.66;4975894;28;20050;-86
2022/11/11 07:41:10;;;;;;;7.63;4.75;;;;;;;13.22;89.47;102542.84;4973821;28;20517;-87
2022/11/11 07:44:01;;;;;;;5.40;4.40;;;;;;;13.28;90.04;102542.69;4982535;28;20131;-87
2022/11/11 07:46:48;;;;;;;6.80;5.05;;;;;;;13.75;90.22;102550.81;4981361;28;20061;-86
2022/11/11 07:49:34;;;;;;;6.53;4.60;;;;;;;13.93;88.43;102552.47;4976604;28;20056;-87
2022/11/11 07:52:22;;;;;;;10.32;4.90;;;;;;;13.79;89.04;102555.56;4987836;28;20047;-87
2022/11/11 07:55:09;;;;;;;6.88;4.50;;;;;;;14.15;88.06;102557.13;5006870;28;20050;-89
2022/11/11 07:58:00;;;;;;;8.52;4.18;;;;;;;14.12;88.51;102558.47;5001534;28;20105;-89
2022/11/11 08:00:46;;;;;;;5.22;3.97;;;;;;;14.05;88.24;102557.84;4991573;28;20055;-91
2022/11/11 08:03:33;;;;;;;6.72;4.43;;;;;;;14.17;87.95;102561.28;4975439;28;20057;-91
2022/11/11 08:06:20;;;;;;;4.35;3.58;;;;;;;14.23;87.71;102563.03;4984770;28;20050;-85
2022/11/11 08:09:06;;;;;;;5.40;4.05;;;;;;;14.22;86.75;102560.53;4989098;28;20061;-83
2022/11/11 08:15:07;;;;;;;5.25;4.05;;;;;;;14.38;86.31;102548.59;4973084;28;20050;-84
2022/11/11 08:17:54;;;;;;;6.88;4.38;;;;;;;14.60;86.97;102555.19;4974157;28;20054;-80
2022/11/11 08:20:40;;;;;;;5.80;4.18;;;;;;;14.66;84.94;102548.63;4973394;28;20051;-84
2022/11/11 08:23:32;;;;;;;6.15;4.50;;;;;;;14.73;85.41;102557.53;4973741;28;20047;-81
2022/11/11 08:26:39;;;;;;;9.35;4.85;;;;;;;15.04;82.33;102555.09;4978531;28;20042;-82
2022/11/11 08:29:25;;;;;;;7.85;4.07;;;;;;;15.23;81.80;102557.47;4981463;28;20398;-79
2022/11/11 08:32:11;;;;;;;9.40;5.05;;;;;;;15.53;83.24;102557.94;4992830;28;20054;-81
2022/11/11 08:34:58;;;;;;;5.45;4.30;;;;;;;15.69;79.95;102556.16;4989791;28;20050;-80
2022/11/11 08:37:44;;;;;;;5.78;4.32;;;;;;;15.76;80.67;102559.50;4984331;28;20050;-77
2022/11/11 08:40:31;;;;;;;6.72;4.32;;;;;;;15.62;80.64;102563.81;4976000;28;20486;-80
2022/11/11 08:43:18;;;;;;;6.57;5.00;;;;;;;15.99;80.04;102571.25;4975067;28;20054;-79
2022/11/11 08:46:04;;;;;;;7.05;4.53;;;;;;;16.12;79.66;102576.28;4973791;28;20050;-80
2022/11/11 08:48:52;;;;;;;7.07;4.43;;;;;;;16.22;78.44;102578.25;4973043;28;20473;-77
2022/11/11 08:51:38;;;;;;;10.02;5.30;;;;;;;16.48;78.25;102580.28;4982045;28;20477;-77
2022/11/11 08:54:32;;;;;;;6.07;4.60;;;;;;;16.56;78.20;102578.94;4991350;28;20062;-76
2022/11/11 08:57:18;;;;;;;9.50;5.28;;;;;;;16.73;77.24;102570.41;4974567;28;20054;-77
2022/11/11 09:00:09;;;;;;;7.78;5.13;;;;;;;16.93;75.61;102587.00;4990497;28;20486;-75
2022/11/11 09:03:05;;;;;;;8.98;5.65;;;;;;;17.21;76.11;102585.97;4974103;28;20486;-79
2022/11/11 09:05:51;;;;;;;9.50;5.80;;;;;;;17.26;74.87;102588.75;4973658;28;20059;-77
2022/11/11 09:08:40;;;;;;;8.32;5.82;;;;;;;17.40;75.97;102595.38;4989999;28;20046;-77
2022/11/11 09:11:27;;;;;;;9.30;6.20;;;;;;;17.32;74.79;102596.75;4978686;28;20070;-77
2022/11/11 09:14:14;;;;;;;10.70;5.88;;;;;;;17.02;76.78;102594.78;4992151;28;20129;-77
2022/11/11 09:17:00;;;;;;;8.52;5.75;;;;;;;16.73;77.82;102593.38;4992671;28;20536;-78
2022/11/11 09:19:47;;;;;;;9.57;5.50;;;;;;;17.07;76.36;102603.13;4990284;28;20051;-78
2022/11/11 09:22:41;;;;;;;11.02;5.70;;;;;;;16.93;76.01;102598.06;4992353;28;20046;-76
2022/11/11 09:25:30;;;;;;;9.25;5.55;;;;;;;16.88;77.64;102600.88;4990728;28;20065;-77
2022/11/11 09:28:16;;;;;;;13.32;5.70;;;;;;;17.26;76.20;102611.69;4986138;28;20401;-77
2022/11/11 09:31:03;;;;;;;10.65;6.55;;;;;;;16.95;78.24;102610.81;4986270;28;20051;-77
2022/11/11 09:34:09;;;;;;;11.35;6.97;;;;;;;16.84;78.96;102612.72;4991250;28;20486;-77
2022/11/11 09:36:55;;;;;;;9.45;6.57;;;;;;;16.52;78.89;102623.69;4978665;28;20051;-76
2022/11/11 09:39:41;;;;;;;10.45;6.28;;;;;;;16.23;77.98;102624.13;4982894;28;20046;-77
2022/11/11 09:42:41;;;;;;;10.85;5.85;;;;;;;16.23;79.92;102617.78;4990983;28;20058;-76
2022/11/11 09:45:40;;;;;;;12.90;7.43;;;;;;;16.31;79.87;102628.31;4992447;28;20055;-76
2022/11/11 09:48:48;;;;;;;13.18;6.72;;;;;;;16.81;79.03;102630.69;4993048;28;20042;-82
2022/11/11 09:52:02;;;;;;;11.73;6.90;;;;;;;16.65;80.19;102630.66;4989603;28;20062;-78
2022/11/11 09:55:11;;;;;;;9.45;6.50;;;;;;;16.58;79.75;102635.63;4991720;28;20046;-81
2022/11/11 09:58:13;;;;;;;11.75;7.45;;;;;;;16.96;80.16;102634.59;4993660;28;20051;-79
2022/11/11 10:01:11;;;;;;;10.15;6.80;;;;;;;17.22;78.03;102641.03;5006733;28;20058;-79
2022/11/11 10:04:11;;;;;;;9.57;6.10;;;;;;;17.19;77.88;102641.56;4987481;28;20051;-81
2022/11/11 10:07:05;;;;;;;12.52;7.07;;;;;;;16.95;79.21;102633.75;4986704;28;20042;-84
2022/11/11 10:09:59;;;;;;;9.77;6.82;;;;;;;17.32;77.01;102642.97;4995925;28;20046;-85
2022/11/11 10:12:57;;;;;;;9.07;6.38;;;;;;;17.59;76.63;102628.03;4995274;28;20042;-83
2022/11/11 10:15:57;;;;;;;11.85;7.28;;;;;;;17.68;75.70;102637.44;4982964;28;20387;-82
2022/11/11 10:18:45;;;;;;;8.05;5.78;;;;;;;17.30;78.31;102636.91;4994496;28;20043;-83
2022/11/11 10:21:40;;;;;;;10.57;6.75;;;;;;;17.01;78.47;102640.97;4986703;28;20042;-82
2022/11/11 10:25:12;;;;;;;8.48;6.10;;;;;;;17.48;77.66;102634.66;4980130;28;20478;-82
2022/11/11 10:28:01;;;;;;;7.88;6.07;;;;;;;17.43;77.04;102628.06;4994594;28;20050;-82
2022/11/11 10:30:50;;;;;;;7.88;6.20;;;;;;;17.36;77.57;102632.19;4988780;28;20042;-82
2022/11/11 10:33:50;;;;;;;6.43;5.45;;;;;;;17.31;76.71;102619.19;4986749;28;20046;-83
2022/11/11 10:36:48;;;;;;;7.20;5.95;;;;;;;17.68;76.97;102622.75;4994216;28;20050;-82
2022/11/11 10:39:43;;;;;;;6.43;5.47;;;;;;;17.67;74.47;102624.72;4995400;28;20066;-82
2022/11/11 10:42:30;;;;;;;6.95;5.65;;;;;;;17.58;74.38;102626.38;4995026;28;20058;-82
2022/11/11 10:45:57;;;;;;;6.63;5.38;;;;;;;17.59;74.39;102625.25;4994207;28;20378;-82
2022/11/11 10:48:49;;;;;;;6.60;5.88;;;;;;;17.75;73.90;102625.25;4981895;28;20413;-81
2022/11/11 10:51:44;;;;;;;7.72;5.70;;;;;;;18.22;nan;102631.53;4996042;28;20046;-80
2022/11/11 10:54:38;;;;;;;6.65;5.50;;;;;;;17.85;70.76;102628.00;4992638;28;20054;-81
2022/11/11 10:57:54;;;;;;;7.13;5.80;;;;;;;17.99;71.81;102620.78;4993900;28;20058;-82
2022/11/11 11:00:44;;;;;;;9.07;6.38;;;;;;;17.38;73.17;102616.13;4994317;28;20046;-81
2022/11/11 11:03:59;;;;;;;8.07;6.05;;;;;;;17.69;72.29;102621.69;4991490;28;20046;-81
2022/11/11 11:06:49;;;;;;;7.13;6.13;;;;;;;17.93;73.46;102632.97;4995561;28;20050;-81
2022/11/11 11:09:41;;;;;;;9.55;6.72;;;;;;;17.82;72.72;102623.03;4975614;28;20046;-81
2022/11/11 11:12:37;;;;;;;9.95;6.80;;;;;;;17.77;73.16;102615.56;4989772;28;20051;-81
2022/11/11 11:15:27;;;;;;;9.10;6.80;;;;;;;17.58;72.34;102607.84;4991231;28;20413;-83
2022/11/11 11:18:18;;;;;;;8.48;7.30;;;;;;;17.27;73.33;102602.31;4993458;28;20058;-80
2022/11/11 11:21:07;;;;;;;9.18;7.10;;;;;;;17.57;74.73;102606.19;4994870;28;20042;-78
2022/11/11 11:23:53;;;;;;;11.15;6.97;;;;;;;17.68;74.49;102587.59;4994279;28;20046;-79
2022/11/11 11:26:50;;;;;;;10.48;7.50;;;;;;;17.45;72.70;102592.63;4994608;28;20969;-79
2022/11/11 11:29:42;;;;;;;9.82;7.18;;;;;;;18.07;72.87;102601.94;4994785;28;20061;-78
2022/11/11 11:32:31;;;;;;;9.80;6.70;;;;;;;18.53;71.73;102601.75;4993455;28;20069;-79
2022/11/11 11:35:37;;;;;;;10.13;7.00;;;;;;;19.00;67.75;102598.69;4974969;28;20398;-78
2022/11/11 11:38:42;;;;;;;9.30;6.80;;;;;;;18.88;66.43;102593.53;4978956;28;20046;-79
2022/11/11 11:41:40;;;;;;;8.98;7.45;;;;;;;19.18;66.22;102582.50;4992970;28;20057;-79
2022/11/11 11:44:39;;;;;;;9.95;6.88;;;;;;;19.16;65.88;102571.69;4980398;28;20062;-79
2022/11/11 11:47:35;;;;;;;7.80;6.55;;;;;;;19.45;64.90;102572.81;4992855;28;20053;-79
2022/11/11 11:51:17;;;;;;;9.05;6.72;;;;;;;19.41;65.51;102572.56;4992038;28;20059;-79
2022/11/11 11:54:12;;;;;;;11.25;7.07;;;;;;;19.45;65.61;102562.56;4982937;28;20050;-81
2022/11/11 11:57:03;;;;;;;8.85;7.43;;;;;;;19.71;65.92;102564.25;4985719;28;20042;-80
2022/11/11 12:00:13;;;;;;;7.50;6.00;;;;;;;19.57;63.67;102556.63;4985429;28;20043;-80
2022/11/11 12:03:30;;;;;;;8.25;6.43;;;;;;;18.76;66.60;102552.25;4983580;28;20046;-79
2022/11/11 12:06:41;;;;;;;7.70;6.50;;;;;;;18.93;66.32;102545.50;4975462;28;20055;-79
2022/11/11 12:09:33;;;;;;;8.50;6.68;;;;;;;18.78;65.95;102546.44;4993649;28;20058;-80
2022/11/11 12:12:30;;;;;;;11.70;6.60;;;;;;;19.00;66.88;102534.03;4993462;28;20050;-80
2022/11/11 12:15:47;;;;;;;8.38;6.60;;;;;;;19.17;66.02;102534.50;4988564;28;20081;-79
2022/11/11 12:18:45;;;;;;;9.18;7.15;;;;;;;19.11;66.35;102534.84;4993834;28;20054;-79
2022/11/11 12:21:45;;;;;;;10.85;6.78;;;;;;;19.47;61.93;102531.72;4992080;28;20039;-79
2022/11/11 12:24:53;;;;;;;10.75;6.63;;;;;;;19.04;62.19;102536.00;4993545;28;20046;-79
2022/11/11 12:28:03;;;;;;;9.20;6.38;;;;;;;19.45;61.72;102534.78;4994352;28;20046;-79
2022/11/11 12:31:05;;;;;;;7.72;6.40;;;;;;;19.32;63.94;102541.84;4993291;28;20070;-79
2022/11/11 12:33:59;;;;;;;9.10;6.43;;;;;;;19.56;62.23;102538.28;4991768;28;20079;-79
2022/11/11 12:36:53;;;;;;;7.68;6.07;;;;;;;19.82;60.83;102543.56;4978258;28;20043;-79
2022/11/11 12:39:57;;;;;;;8.85;6.18;;;;;;;19.70;63.25;102535.63;4974991;28;20054;-79
2022/11/11 12:43:16;;;;;;;9.55;6.45;;;;;;;19.81;62.88;102533.59;4990777;28;20054;-78
2022/11/11 12:46:24;;;;;;;8.50;6.55;;;;;;;19.63;63.59;102535.16;5005997;28;20042;-78
2022/11/11 12:49:27;;;;;;;9.93;6.78;;;;;;;20.06;63.77;102531.66;4992674;28;20054;-80
2022/11/11 12:52:46;;;;;;;8.70;7.13;;;;;;;20.07;61.44;102538.84;4979818;28;20508;-79
2022/11/11 12:55:44;;;;;;;7.57;6.30;;;;;;;19.94;62.52;102528.44;4984293;28;20378;-79
2022/11/11 12:59:03;;;;;;;13.65;7.07;;;;;;;19.68;63.88;102531.50;4992985;28;20054;-79
2022/11/11 13:02:13;;;;;;;9.13;7.20;;;;;;;19.54;65.29;102534.13;4979692;28;20050;-80
2022/11/11 13:05:11;;;;;;;7.97;6.47;;;;;;;19.33;65.34;102526.88;4978671;28;20386;-79
2022/11/11 13:08:35;;;;;;;9.25;7.45;;;;;;;19.20;66.22;102528.38;4984203;28;20054;-80
2022/11/11 13:11:45;;;;;;;9.05;7.40;;;;;;;18.68;68.37;102522.38;4978572;28;20046;-79
2022/11/11 13:14:40;;;;;;;9.10;7.38;;;;;;;18.91;69.09;102520.81;4993305;28;20054;-80
2022/11/11 13:17:27;;;;;;;9.93;7.05;;;;;;;19.07;67.37;102524.31;4979484;28;20051;-80
2022/11/11 13:20:40;;;;;;;9.13;7.55;;;;;;;19.13;67.57;102527.03;4973543;28;20039;-79
2022/11/11 13:23:27;;;;;;;10.20;7.25;;;;;;;18.99;67.18;102524.91;4988573;28;20062;-79
2022/11/11 13:26:26;;;;;;;10.60;8.18;;;;;;;18.88;67.92;102531.66;4986614;28;20050;-79
2022/11/11 13:29:31;;;;;;;10.27;7.72;;;;;;;18.73;69.65;102535.38;4973441;28;20058;-80
2022/11/11 13:32:23;;;;;;;8.80;7.72;;;;;;;18.71;67.74;102532.06;4973608;28;20410;-80
2022/11/11 13:35:37;;;;;;;10.77;7.43;;;;;;;18.86;68.39;102531.94;4973806;28;20058;-80
2022/11/11 13:38:33;;;;;;;11.25;7.10;;;;;;;18.79;68.74;102535.06;4988377;28;20057;-80
2022/11/11 13:41:24;;;;;;;10.05;7.32;;;;;;;18.87;69.72;102530.00;4996372;28;20387;-80
2022/11/11 13:44:21;;;;;;;10.40;7.65;;;;;;;18.89;68.73;102528.59;4979767;28;20058;-80
2022/11/11 13:47:17;;;;;;;10.43;7.55;;;;;;;18.82;68.90;102532.81;4985719;28;20476;-80
2022/11/11 13:50:13;;;;;;;9.40;7.65;;;;;;;18.82;68.90;102525.31;4996848;28;20042;-79
2022/11/11 13:53:03;;;;;;;12.85;9.00;;;;;;;18.63;72.53;102530.72;4996960;28;20058;-79
2022/11/11 13:55:52;;;;;;;12.32;9.52;;;;;;;18.83;72.83;102523.38;4991550;28;20035;-79
2022/11/11 13:58:46;;;;;;;16.35;9.85;;;;;;;18.91;73.95;102519.97;4977092;28;20058;-80
2022/11/11 14:01:39;;;;;;;18.55;12.13;;;;;;;18.66;76.32;102519.06;4991745;28;20050;-79
2022/11/11 14:04:30;;;;;;;18.95;11.73;;;;;;;18.78;76.33;102524.25;4991779;28;20047;-79
2022/11/11 14:07:43;;;;;;;19.88;11.38;;;;;;;18.91;75.27;102525.50;4991719;28;20046;-79
2022/11/11 14:10:35;;;;;;;20.55;12.98;;;;;;;18.74;76.99;102534.25;4991317;28;20501;-79
2022/11/11 14:13:22;;;;;;;20.67;13.80;;;;;;;18.45;77.94;102535.00;4990820;28;20046;-79
2022/11/11 14:16:11;;;;;;;22.40;13.38;;;;;;;18.72;77.82;102537.31;4991942;28;20054;-80
2022/11/11 14:18:57;;;;;;;22.65;13.68;;;;;;;18.57;78.92;102542.97;4993730;28;20253;-78
2022/11/11 14:21:57;;;;;;;20.73;13.20;;;;;;;18.43;79.09;102543.59;4993325;28;20046;-79
2022/11/11 14:24:46;;;;;;;27.00;14.52;;;;;;;18.24;80.09;102549.78;4993335;28;20405;-80
2022/11/11 14:27:33;;;;;;;27.15;14.13;;;;;;;18.36;79.70;102543.91;4993625;28;20393;-79
2022/11/11 14:30:30;;;;;;;23.98;13.38;;;;;;;18.39;79.63;102543.31;4993784;28;20057;-79
2022/11/11 14:33:25;;;;;;;22.83;13.68;;;;;;;18.35;80.10;102541.41;4993657;28;20039;-79
2022/11/11 14:36:33;;;;;;;24.20;15.00;;;;;;;18.46;79.01;102547.72;4992307;28;20053;-80
2022/11/11 14:39:35;;;;;;;22.92;12.88;;;;;;;18.25;80.36;102540.38;4991230;28;20054;-80
2022/11/11 14:42:34;;;;;;;24.27;14.43;;;;;;;18.15;79.97;102531.25;4993384;28;20370;-80
2022/11/11 14:45:30;;;;;;;24.35;13.77;;;;;;;18.07;80.89;102525.22;4991895;28;20056;-79
2022/11/11 14:48:51;;;;;;;24.63;12.73;;;;;;;18.13;80.77;102526.84;4992513;28;20061;-80
2022/11/11 14:51:47;;;;;;;23.88;12.73;;;;;;;17.91;81.41;102529.97;4992501;28;20397;-80
2022/11/11 14:54:44;;;;;;;23.05;13.45;;;;;;;17.52;82.94;102523.13;4992991;28;21349;-79
2022/11/11 14:57:50;;;;;;;28.77;14.52;;;;;;;17.58;83.45;102523.94;4992089;28;20043;-79
2022/11/11 15:00:56;;;;;;;23.95;13.18;;;;;;;17.54;84.15;102528.41;4992589;28;20054;-79
2022/11/11 15:03:48;;;;;;;23.90;12.93;;;;;;;17.48;83.98;102524.81;4993221;28;20049;-79
2022/11/11 15:06:44;;;;;;;21.70;13.48;;;;;;;17.31;84.97;102525.13;4981290;28;20053;-80
2022/11/11 15:09:50;;;;;;;26.55;13.43;;;;;;;17.13;86.18;102524.56;4975760;28;20066;-79
2022/11/11 15:12:43;;;;;;;23.55;12.70;;;;;;;17.18;86.25;102526.50;4987677;28;20493;-79
2022/11/11 15:16:03;;;;;;;24.75;13.45;;;;;;;17.13;86.67;102526.50;4988686;28;20074;-79
2022/11/11 15:19:13;;;;;;;23.80;12.88;;;;;;;17.01;87.14;102526.75;4992071;28;20042;-80
2022/11/11 15:22:16;;;;;;;19.25;11.70;;;;;;;16.87;87.85;102520.94;4989621;28;20057;-79
2022/11/11 15:25:30;;;;;;;21.70;13.40;;;;;;;16.75;88.47;102522.03;4995316;28;20053;-79
2022/11/11 15:28:27;;;;;;;25.90;14.02;;;;;;;16.71;89.06;102523.69;4996042;28;20046;-79
2022/11/11 15:31:17;;;;;;;27.40;14.00;;;;;;;16.65;89.89;102514.56;4990346;28;20054;-80
2022/11/11 15:34:18;;;;;;;25.42;14.07;;;;;;;16.51;89.68;102521.69;5009355;28;20055;-79
2022/11/11 15:37:26;;;;;;;22.70;12.90;;;;;;;16.43;90.48;102516.72;5014758;28;20050;-80
2022/11/11 15:40:21;;;;;;;23.67;13.75;;;;;;;16.33;91.28;102515.56;4987611;28;20058;-80
2022/11/11 15:43:16;;;;;;;24.77;13.95;;;;;;;16.29;91.70;102517.25;4993136;28;20046;-80
2022/11/11 15:46:04;;;;;;;25.55;13.40;;;;;;;16.33;91.64;102512.81;4992726;28;20054;-80
2022/11/11 15:48:52;;;;;;;25.25;13.05;;;;;;;16.34;91.57;102513.66;4980529;28;20050;-81
2022/11/11 15:51:39;;;;;;;23.40;13.63;;;;;;;16.32;91.33;102516.69;4973804;28;20058;-80
2022/11/11 15:54:25;;;;;;;21.13;13.18;;;;;;;16.27;91.37;102513.09;4975040;28;20047;-80
2022/11/11 15:57:26;;;;;;;23.77;14.02;;;;;;;16.14;91.69;102506.97;4977318;28;20046;-81
2022/11/11 16:00:39;;;;;;;24.65;13.65;;;;;;;16.08;93.03;102505.28;4982362;28;20049;-80
2022/11/11 16:03:40;;;;;;;25.63;14.35;;;;;;;15.96;92.40;102508.28;4992104;28;20046;-80
2022/11/11 16:06:26;;;;;;;25.83;13.35;;;;;;;15.79;91.59;102509.25;4992418;28;20050;-81
2022/11/11 16:09:16;;;;;;;26.67;14.88;;;;;;;15.68;94.08;102507.53;4987993;28;20057;-81
2022/11/11 16:12:03;;;;;;;30.70;16.25;;;;;;;15.63;95.90;102502.84;4994293;28;20046;-81
2022/11/11 16:14:53;;;;;;;30.92;16.95;;;;;;;15.60;96.43;102511.66;4994311;28;20078;-81
2022/11/11 16:17:43;;;;;;;39.85;22.08;;;;;;;15.57;95.98;102521.31;4990760;28;20051;-81
2022/11/11 16:20:36;;;;;;;31.65;18.95;;;;;;;15.51;96.49;102507.72;4974814;28;20058;-81
2022/11/11 16:23:24;;;;;;;31.67;17.60;;;;;;;15.41;97.72;102512.06;4974243;28;20054;-81
2022/11/11 16:26:11;;;;;;;32.22;18.13;;;;;;;15.30;98.10;102505.66;4974185;28;20053;-81
2022/11/11 16:28:58;;;;;;;29.10;17.45;;;;;;;15.26;97.51;102501.75;4977030;28;20050;-81
2022/11/11 16:31:45;;;;;;;31.83;17.90;;;;;;;15.18;98.94;102511.38;4987720;28;20053;-82
2022/11/11 16:34:40;;;;;;;31.00;17.25;;;;;;;15.07;98.84;102504.13;4975990;28;21177;-81
2022/11/11 16:37:26;;;;;;;33.42;17.00;;;;;;;14.95;99.74;102512.56;4988346;28;20057;-81
2022/11/11 16:40:28;;;;;;;26.85;16.55;;;;;;;14.91;99.84;102511.44;4990883;28;20061;-81
2022/11/11 16:43:14;;;;;;;34.40;16.77;;;;;;;14.75;100.00;102514.03;4985433;28;20445;-79
2022/11/11 16:46:12;;;;;;;29.52;16.88;;;;;;;14.67;100.00;102525.50;4989807;28;20054;-80
2022/11/11 16:49:09;;;;;;;35.13;18.42;;;;;;;14.70;100.00;102524.97;4990497;28;20061;-81
2022/11/11 16:52:05;;;;;;;30.70;17.55;;;;;;;14.52;100.00;102518.75;4987430;28;20046;-81
2022/11/11 16:54:58;;;;;;;29.55;16.35;;;;;;;14.48;100.00;102531.34;4990344;28;20539;-81
2022/11/11 16:57:45;;;;;;;29.55;16.92;;;;;;;14.44;100.00;102533.00;4991587;28;20069;-81
2022/11/11 17:00:32;;;;;;;30.40;16.90;;;;;;;14.52;100.00;102538.03;4991199;28;20057;-81
2022/11/11 17:03:24;;;;;;;34.08;17.10;;;;;;;14.54;100.00;102539.69;4990789;28;20053;-81
2022/11/11 17:06:12;;;;;;;26.48;16.05;;;;;;;14.52;100.00;102531.69;4993169;28;20453;-83
2022/11/11 17:08:59;;;;;;;28.70;16.92;;;;;;;14.47;100.00;102545.41;4990448;28;20061;-80
2022/11/11 17:11:46;;;;;;;26.85;16.08;;;;;;;14.38;100.00;102542.28;4992113;28;20045;-82
2022/11/11 17:14:37;;;;;;;23.85;15.30;;;;;;;14.33;100.00;102556.00;4991739;28;20054;-82
2022/11/11 17:17:24;;;;;;;25.25;14.63;;;;;;;14.28;100.00;102548.50;4991383;28;20046;-80
2022/11/11 17:20:15;;;;;;;24.55;13.20;;;;;;;14.14;100.00;102531.53;4979003;28;20065;-82
2022/11/11 17:23:05;;;;;;;23.38;12.77;;;;;;;14.07;100.00;102523.47;4990491;28;20055;-81
2022/11/11 17:26:03;;;;;;;25.42;14.25;;;;;;;14.05;100.00;102531.16;4980840;28;20409;-81
2022/11/11 17:28:50;;;;;;;28.23;14.13;;;;;;;14.02;100.00;102534.41;4995648;28;20046;-81
2022/11/11 17:31:37;;;;;;;23.80;14.32;;;;;;;13.86;100.00;102525.13;4992021;28;20050;-81
2022/11/11 17:34:23;;;;;;;24.80;15.05;;;;;;;13.89;100.00;102535.59;4988415;28;20061;-81
2022/11/11 17:37:10;;;;;;;23.85;14.35;;;;;;;13.90;100.00;102539.19;4983901;28;20061;-81
2022/11/11 17:39:56;;;;;;;23.88;13.07;;;;;;;13.79;100.00;102540.97;4988970;28;20400;-81
2022/11/11 17:42:42;;;;;;;21.77;13.60;;;;;;;13.68;100.00;102537.22;4987660;28;20049;-81
2022/11/11 17:45:29;;;;;;;22.48;12.65;;;;;;;13.61;100.00;102539.34;4988572;28;20524;-81
2022/11/11 17:48:17;;;;;;;23.90;13.18;;;;;;;13.62;100.00;102538.25;4994060;28;20507;-81
2022/11/11 17:51:05;;;;;;;20.52;13.18;;;;;;;13.63;100.00;102535.25;4978439;28;20432;-81
2022/11/11 17:53:52;;;;;;;20.40;13.35;;;;;;;13.64;100.00;102534.16;4999464;28;20062;-81
2022/11/11 17:56:39;;;;;;;23.88;13.27;;;;;;;13.60;100.00;102544.03;4994769;28;20053;-82
2022/11/11 17:59:25;;;;;;;26.20;14.07;;;;;;;13.51;100.00;102554.63;4997638;28;20069;-80
2022/11/11 18:02:14;;;;;;;23.05;13.25;;;;;;;13.48;100.00;102552.34;4996156;28;20057;-81
2022/11/11 18:05:00;;;;;;;24.23;13.00;;;;;;;13.38;100.00;102558.50;4994490;28;20053;-79
2022/11/11 18:07:47;;;;;;;22.77;11.93;;;;;;;13.35;100.00;102552.66;4991831;28;20045;-79
2022/11/11 18:10:33;;;;;;;21.33;13.60;;;;;;;13.26;100.00;102546.75;5010555;28;20045;-79
2022/11/11 18:13:21;;;;;;;30.35;14.40;;;;;;;13.22;100.00;102549.16;4997376;28;20050;-79
2022/11/11 18:16:16;;;;;;;25.92;14.10;;;;;;;13.19;100.00;102546.09;4972868;28;20061;-79
2022/11/11 18:19:03;;;;;;;26.25;16.25;;;;;;;13.18;100.00;102559.00;4977830;28;20050;-79
2022/11/11 18:21:50;;;;;;;25.20;15.13;;;;;;;13.15;100.00;102543.00;4993497;28;20062;-78
2022/11/11 18:24:36;;;;;;;32.80;18.50;;;;;;;13.12;100.00;102558.09;5004757;28;20064;-79
2022/11/11 18:27:25;;;;;;;31.27;18.02;;;;;;;13.04;100.00;102555.72;5006909;28;20053;-80
2022/11/11 18:30:12;;;;;;;28.60;17.15;;;;;;;12.99;100.00;102555.63;4998554;28;20057;-79
2022/11/11 18:32:58;;;;;;;28.75;17.10;;;;;;;13.01;100.00;102553.50;4999036;28;20053;-80
2022/11/11 18:35:44;;;;;;;35.50;17.02;;;;;;;12.96;100.00;102559.72;4994153;28;20058;-79
2022/11/11 18:38:31;;;;;;;34.50;18.27;;;;;;;12.95;100.00;102554.47;4995220;28;20081;-79
2022/11/11 18:41:24;;;;;;;31.70;17.67;;;;;;;12.86;100.00;102549.38;4993713;28;20077;-79
2022/11/11 18:44:10;;;;;;;30.33;18.15;;;;;;;12.82;100.00;102542.72;4994286;28;20054;-80
2022/11/11 18:46:56;;;;;;;32.67;18.02;;;;;;;12.77;100.00;102548.13;4980919;28;20046;-79
2022/11/11 18:49:45;;;;;;;31.30;18.75;;;;;;;12.76;100.00;102551.94;4994597;28;20062;-80
2022/11/11 18:52:31;;;;;;;32.03;17.73;;;;;;;12.74;100.00;102541.22;4995248;28;20130;-79
2022/11/11 18:55:18;;;;;;;28.80;18.25;;;;;;;12.67;100.00;102556.16;5000178;28;20397;-79
2022/11/11 18:58:04;;;;;;;33.28;20.73;;;;;;;12.63;100.00;102566.81;5007115;28;20045;-79
2022/11/11 19:00:51;;;;;;;39.70;21.48;;;;;;;12.58;100.00;102564.81;4975374;28;20062;-79
2022/11/11 19:03:41;;;;;;;33.70;20.50;;;;;;;12.53;100.00;102561.97;5008198;28;20485;-79
2022/11/11 19:06:30;;;;;;;35.78;19.50;;;;;;;12.47;100.00;102560.19;4987257;28;20066;-79
2022/11/11 19:09:16;;;;;;;35.15;19.55;;;;;;;12.42;100.00;102565.56;4960909;28;20057;-79
2022/11/11 19:12:03;;;;;;;33.38;20.38;;;;;;;12.40;100.00;102554.81;4993495;28;20437;-79
2022/11/11 19:14:49;;;;;;;29.58;19.15;;;;;;;12.39;100.00;102560.56;4999239;28;20057;-79
2022/11/11 19:17:36;;;;;;;37.15;19.58;;;;;;;12.40;100.00;102559.47;4994105;28;20045;-79
2022/11/11 19:20:22;;;;;;;31.13;18.15;;;;;;;12.38;100.00;102564.38;5002122;28;20508;-79
2022/11/11 19:23:09;;;;;;;30.95;18.30;;;;;;;12.36;100.00;102570.97;4994590;28;20057;-79
2022/11/11 19:25:58;;;;;;;30.48;19.63;;;;;;;12.40;100.00;102581.44;5004650;28;20056;-79
2022/11/11 19:28:46;;;;;;;30.13;18.15;;;;;;;12.32;100.00;102563.47;4992285;28;20042;-78
2022/11/11 19:31:33;;;;;;;29.35;18.35;;;;;;;12.29;100.00;102572.16;4991837;28;20050;-81
2022/11/11 19:34:20;;;;;;;31.90;18.20;;;;;;;12.33;100.00;102576.91;4988870;28;20054;-81
2022/11/11 19:37:10;;;;;;;28.85;18.27;;;;;;;12.25;100.00;102569.06;4991631;28;20046;-81
2022/11/11 19:39:56;;;;;;;27.17;16.90;;;;;;;12.34;100.00;102588.75;4993163;28;20058;-81
2022/11/11 19:42:47;;;;;;;29.73;18.77;;;;;;;12.27;100.00;102597.09;4993711;28;20057;-81